Startpagina
METAR-TAF:

METAR-TAF

Vliegvelden :

Luchthaven Pointe-Noire

Pointe-Noire, Congo

breedte: 04-49S, lengte: 011-54E, hoogte: 17 m

Actueel weer

Dit bericht is 44 minuten geleden gemaakt, om 07:00 UTC
Wind 4 kt uit het oosten
Temperatuur 27°C
Vochtigheid 94%
Druk 1011 hPa
Zicht: 8000 m
Weinig wolken op 1000 ft
Gebroken wolken op 2300 ft
Weinig wolken op 3000 ft, Cumulonimbus.

METAR: FCPP 290700Z 09004KT 8000 FEW010 BKN023 FEW030CB 27/26 Q1011 NOSIG

Tijdstip: 08:44 (07:44 UTC)

Verwachting

Dit bericht is 2 uur en het 44 minuten geleden gemaakt, om 05:00 UTC
Verwachting geldig van 29 om 06 UTC tot 30 om 06 UTC
Wind 8 kt uit het zuidzuidoosten
Zicht: 7000 m
Weinig wolken op 1000 ft
Verspreide wolken op 2300 ft
Kans 40%
van 29 om 16 UTC tot 29 om 19 UTC
Weinig wolken op 2000 ft
Weinig wolken op 3000 ft, Cumulonimbus.

TAF: FCPP 290500Z 2906/3006 16008KT 7000 FEW010 SCT023 PROB40 2916/2919 FEW020 FEW030CB

Waarnemingen en weersverwachtingen van meer dan 4000 vliegvelden (METAR en TAF).

De beschikbare stations zijn de gele en rode punten op de kaart.

Ga met uw muis naar het station om de naam te zien.

Klik dan om waarnemingen en weersverwachtingen te zien.

kaart wijzigen: klik op de groene knoppen met een zwart kruis om in te zoomen, op de groene knop met een streepje om uit te zoomen of op de groene pijlen voor aangrenzende kaarten.


METAR-TAF: